sensor_id;sensor_type;location;lat;lon;timestamp;P1;durP1;ratioP1;P2;durP2;ratioP2
46551;SDS011;32278;51.810;4.712;2024-02-26T00:02:04;7.75;;;4.35;;
46551;SDS011;32278;51.810;4.712;2024-02-26T00:04:31;4.82;;;4.30;;
46551;SDS011;32278;51.810;4.712;2024-02-26T00:06:58;6.13;;;4.50;;
46551;SDS011;32278;51.810;4.712;2024-02-26T00:09:24;7.65;;;4.32;;
46551;SDS011;32278;51.810;4.712;2024-02-26T00:11:49;10.23;;;4.55;;
46551;SDS011;32278;51.810;4.712;2024-02-26T00:14:15;6.20;;;4.03;;
46551;SDS011;32278;51.810;4.712;2024-02-26T00:16:41;6.00;;;4.22;;
46551;SDS011;32278;51.810;4.712;2024-02-26T00:19:10;7.70;;;4.60;;
46551;SDS011;32278;51.810;4.712;2024-02-26T00:21:39;5.50;;;4.30;;
46551;SDS011;32278;51.810;4.712;2024-02-26T00:24:06;6.38;;;4.30;;
46551;SDS011;32278;51.810;4.712;2024-02-26T00:26:32;5.22;;;4.30;;
46551;SDS011;32278;51.810;4.712;2024-02-26T00:28:58;10.30;;;4.80;;
46551;SDS011;32278;51.810;4.712;2024-02-26T00:31:24;8.35;;;5.15;;
46551;SDS011;32278;51.810;4.712;2024-02-26T00:33:50;8.00;;;4.90;;
46551;SDS011;32278;51.810;4.712;2024-02-26T00:36:16;5.07;;;4.35;;
46551;SDS011;32278;51.810;4.712;2024-02-26T00:38:43;8.45;;;4.82;;
46551;SDS011;32278;51.810;4.712;2024-02-26T00:41:11;5.30;;;4.80;;
46551;SDS011;32278;51.810;4.712;2024-02-26T00:43:37;9.18;;;5.30;;
46551;SDS011;32278;51.810;4.712;2024-02-26T00:46:05;9.27;;;5.00;;
46551;SDS011;32278;51.810;4.712;2024-02-26T00:48:31;4.80;;;4.38;;
46551;SDS011;32278;51.810;4.712;2024-02-26T00:50:57;5.38;;;4.45;;
46551;SDS011;32278;51.810;4.712;2024-02-26T00:53:23;6.20;;;4.40;;
46551;SDS011;32278;51.810;4.712;2024-02-26T00:55:50;4.80;;;4.40;;
46551;SDS011;32278;51.810;4.712;2024-02-26T00:58:16;5.28;;;4.57;;
46551;SDS011;32278;51.810;4.712;2024-02-26T01:00:42;9.82;;;4.00;;
46551;SDS011;32278;51.810;4.712;2024-02-26T01:03:08;6.93;;;5.07;;
46551;SDS011;32278;51.810;4.712;2024-02-26T01:05:35;7.05;;;5.22;;
46551;SDS011;32278;51.810;4.712;2024-02-26T01:08:03;7.00;;;4.95;;
46551;SDS011;32278;51.810;4.712;2024-02-26T01:10:29;7.43;;;4.07;;
46551;SDS011;32278;51.810;4.712;2024-02-26T01:12:55;8.30;;;4.88;;
46551;SDS011;32278;51.810;4.712;2024-02-26T01:15:21;6.63;;;4.93;;
46551;SDS011;32278;51.810;4.712;2024-02-26T01:17:49;6.38;;;4.05;;
46551;SDS011;32278;51.810;4.712;2024-02-26T01:20:15;5.78;;;4.15;;
46551;SDS011;32278;51.810;4.712;2024-02-26T01:22:42;6.97;;;5.20;;
46551;SDS011;32278;51.810;4.712;2024-02-26T01:25:08;8.65;;;5.40;;
46551;SDS011;32278;51.810;4.712;2024-02-26T01:27:37;7.95;;;5.25;;
46551;SDS011;32278;51.810;4.712;2024-02-26T01:30:03;6.00;;;5.00;;
46551;SDS011;32278;51.810;4.712;2024-02-26T01:32:30;5.45;;;4.38;;
46551;SDS011;32278;51.810;4.712;2024-02-26T01:34:56;5.80;;;4.65;;
46551;SDS011;32278;51.810;4.712;2024-02-26T01:37:22;6.38;;;4.53;;
46551;SDS011;32278;51.810;4.712;2024-02-26T01:39:48;7.57;;;4.60;;
46551;SDS011;32278;51.810;4.712;2024-02-26T01:42:14;6.72;;;4.80;;
46551;SDS011;32278;51.810;4.712;2024-02-26T01:44:40;6.80;;;4.97;;
46551;SDS011;32278;51.810;4.712;2024-02-26T01:47:07;5.45;;;4.85;;
46551;SDS011;32278;51.810;4.712;2024-02-26T01:49:34;6.60;;;5.20;;
46551;SDS011;32278;51.810;4.712;2024-02-26T01:52:01;12.90;;;4.97;;
46551;SDS011;32278;51.810;4.712;2024-02-26T01:54:27;7.75;;;4.82;;
46551;SDS011;32278;51.810;4.712;2024-02-26T01:56:53;7.88;;;4.82;;
46551;SDS011;32278;51.810;4.712;2024-02-26T01:59:20;5.80;;;4.65;;
46551;SDS011;32278;51.810;4.712;2024-02-26T02:01:47;5.38;;;4.80;;
46551;SDS011;32278;51.810;4.712;2024-02-26T02:04:14;5.30;;;4.72;;
46551;SDS011;32278;51.810;4.712;2024-02-26T02:06:40;6.00;;;5.38;;
46551;SDS011;32278;51.810;4.712;2024-02-26T02:09:07;7.00;;;5.10;;
46551;SDS011;32278;51.810;4.712;2024-02-26T02:11:34;9.10;;;5.72;;
46551;SDS011;32278;51.810;4.712;2024-02-26T02:14:00;10.23;;;6.07;;
46551;SDS011;32278;51.810;4.712;2024-02-26T02:16:26;7.05;;;5.63;;
46551;SDS011;32278;51.810;4.712;2024-02-26T02:18:52;6.05;;;5.45;;
46551;SDS011;32278;51.810;4.712;2024-02-26T02:21:18;9.63;;;6.25;;
46551;SDS011;32278;51.810;4.712;2024-02-26T02:23:44;7.72;;;5.68;;
46551;SDS011;32278;51.810;4.712;2024-02-26T02:26:11;8.48;;;6.32;;
46551;SDS011;32278;51.810;4.712;2024-02-26T02:28:38;9.52;;;6.57;;
46551;SDS011;32278;51.810;4.712;2024-02-26T02:31:05;6.70;;;5.68;;
46551;SDS011;32278;51.810;4.712;2024-02-26T02:33:31;8.15;;;6.60;;
46551;SDS011;32278;51.810;4.712;2024-02-26T02:35:57;8.90;;;6.43;;
46551;SDS011;32278;51.810;4.712;2024-02-26T02:38:23;6.65;;;6.03;;
46551;SDS011;32278;51.810;4.712;2024-02-26T02:40:51;8.65;;;7.35;;
46551;SDS011;32278;51.810;4.712;2024-02-26T02:43:17;7.38;;;6.47;;
46551;SDS011;32278;51.810;4.712;2024-02-26T02:45:43;7.50;;;6.80;;
46551;SDS011;32278;51.810;4.712;2024-02-26T02:48:10;11.55;;;6.38;;
46551;SDS011;32278;51.810;4.712;2024-02-26T02:50:36;9.07;;;7.13;;
46551;SDS011;32278;51.810;4.712;2024-02-26T02:53:02;11.23;;;7.20;;
46551;SDS011;32278;51.810;4.712;2024-02-26T02:55:28;9.48;;;7.00;;
46551;SDS011;32278;51.810;4.712;2024-02-26T02:57:54;7.93;;;7.18;;
46551;SDS011;32278;51.810;4.712;2024-02-26T03:00:20;10.45;;;7.45;;
46551;SDS011;32278;51.810;4.712;2024-02-26T03:02:48;7.70;;;6.95;;
46551;SDS011;32278;51.810;4.712;2024-02-26T03:05:14;8.60;;;7.40;;
46551;SDS011;32278;51.810;4.712;2024-02-26T03:07:40;12.20;;;7.88;;
46551;SDS011;32278;51.810;4.712;2024-02-26T03:10:06;11.13;;;8.07;;
46551;SDS011;32278;51.810;4.712;2024-02-26T03:12:33;8.60;;;7.28;;
46551;SDS011;32278;51.810;4.712;2024-02-26T03:14:59;12.18;;;8.40;;
46551;SDS011;32278;51.810;4.712;2024-02-26T03:17:28;11.10;;;7.70;;
46551;SDS011;32278;51.810;4.712;2024-02-26T03:19:54;9.43;;;8.27;;
46551;SDS011;32278;51.810;4.712;2024-02-26T03:22:20;12.43;;;8.02;;
46551;SDS011;32278;51.810;4.712;2024-02-26T03:24:46;10.32;;;8.07;;
46551;SDS011;32278;51.810;4.712;2024-02-26T03:27:12;9.35;;;8.45;;
46551;SDS011;32278;51.810;4.712;2024-02-26T03:29:39;9.23;;;8.23;;
46551;SDS011;32278;51.810;4.712;2024-02-26T03:32:05;9.52;;;8.18;;
46551;SDS011;32278;51.810;4.712;2024-02-26T03:34:31;8.95;;;8.05;;
46551;SDS011;32278;51.810;4.712;2024-02-26T03:36:59;9.27;;;7.95;;
46551;SDS011;32278;51.810;4.712;2024-02-26T03:39:25;11.02;;;9.13;;
46551;SDS011;32278;51.810;4.712;2024-02-26T03:41:51;8.30;;;7.50;;
46551;SDS011;32278;51.810;4.712;2024-02-26T03:44:17;10.55;;;8.57;;
46551;SDS011;32278;51.810;4.712;2024-02-26T03:46:43;10.07;;;8.05;;
46551;SDS011;32278;51.810;4.712;2024-02-26T03:49:09;9.05;;;8.00;;
46551;SDS011;32278;51.810;4.712;2024-02-26T03:51:36;10.98;;;9.15;;
46551;SDS011;32278;51.810;4.712;2024-02-26T03:54:02;9.45;;;8.48;;
46551;SDS011;32278;51.810;4.712;2024-02-26T03:56:28;9.57;;;8.23;;
46551;SDS011;32278;51.810;4.712;2024-02-26T03:58:55;10.70;;;8.35;;
46551;SDS011;32278;51.810;4.712;2024-02-26T04:01:21;11.25;;;7.63;;
46551;SDS011;32278;51.810;4.712;2024-02-26T04:03:47;10.20;;;7.80;;
46551;SDS011;32278;51.810;4.712;2024-02-26T04:06:13;12.57;;;7.97;;
46551;SDS011;32278;51.810;4.712;2024-02-26T04:08:39;12.25;;;8.23;;
46551;SDS011;32278;51.810;4.712;2024-02-26T04:11:05;9.52;;;8.18;;
46551;SDS011;32278;51.810;4.712;2024-02-26T04:13:35;11.88;;;8.35;;
46551;SDS011;32278;51.810;4.712;2024-02-26T04:16:05;10.32;;;8.55;;
46551;SDS011;32278;51.810;4.712;2024-02-26T04:18:31;9.93;;;8.82;;
46551;SDS011;32278;51.810;4.712;2024-02-26T04:20:58;12.57;;;8.38;;
46551;SDS011;32278;51.810;4.712;2024-02-26T04:23:24;10.38;;;8.23;;
46551;SDS011;32278;51.810;4.712;2024-02-26T04:25:50;13.40;;;9.35;;
46551;SDS011;32278;51.810;4.712;2024-02-26T04:28:18;9.95;;;8.95;;
46551;SDS011;32278;51.810;4.712;2024-02-26T04:30:45;11.52;;;9.07;;
46551;SDS011;32278;51.810;4.712;2024-02-26T04:33:11;10.73;;;8.68;;
46551;SDS011;32278;51.810;4.712;2024-02-26T04:35:37;9.60;;;7.65;;
46551;SDS011;32278;51.810;4.712;2024-02-26T04:38:03;10.05;;;8.27;;
46551;SDS011;32278;51.810;4.712;2024-02-26T04:40:29;10.60;;;8.43;;
46551;SDS011;32278;51.810;4.712;2024-02-26T04:42:55;10.90;;;8.70;;
46551;SDS011;32278;51.810;4.712;2024-02-26T04:45:22;10.25;;;9.05;;
46551;SDS011;32278;51.810;4.712;2024-02-26T04:47:48;11.30;;;7.47;;
46551;SDS011;32278;51.810;4.712;2024-02-26T04:50:14;8.38;;;7.53;;
46551;SDS011;32278;51.810;4.712;2024-02-26T04:52:40;9.25;;;8.02;;
46551;SDS011;32278;51.810;4.712;2024-02-26T04:55:06;9.15;;;8.13;;
46551;SDS011;32278;51.810;4.712;2024-02-26T04:57:33;11.13;;;7.50;;
46551;SDS011;32278;51.810;4.712;2024-02-26T04:59:59;8.82;;;7.80;;
46551;SDS011;32278;51.810;4.712;2024-02-26T05:02:25;8.35;;;7.43;;
46551;SDS011;32278;51.810;4.712;2024-02-26T05:04:51;9.32;;;7.70;;
46551;SDS011;32278;51.810;4.712;2024-02-26T05:07:17;9.85;;;7.57;;
46551;SDS011;32278;51.810;4.712;2024-02-26T05:09:43;8.10;;;7.32;;
46551;SDS011;32278;51.810;4.712;2024-02-26T05:12:09;7.97;;;7.18;;
46551;SDS011;32278;51.810;4.712;2024-02-26T05:14:35;8.25;;;7.30;;
46551;SDS011;32278;51.810;4.712;2024-02-26T05:17:01;9.48;;;7.45;;
46551;SDS011;32278;51.810;4.712;2024-02-26T05:19:27;11.55;;;8.75;;
46551;SDS011;32278;51.810;4.712;2024-02-26T05:21:53;12.27;;;8.30;;
46551;SDS011;32278;51.810;4.712;2024-02-26T05:24:19;10.50;;;7.70;;
46551;SDS011;32278;51.810;4.712;2024-02-26T05:26:47;11.00;;;8.07;;
46551;SDS011;32278;51.810;4.712;2024-02-26T05:29:13;11.68;;;8.30;;
46551;SDS011;32278;51.810;4.712;2024-02-26T05:31:41;10.35;;;8.38;;
46551;SDS011;32278;51.810;4.712;2024-02-26T05:34:07;9.27;;;8.02;;
46551;SDS011;32278;51.810;4.712;2024-02-26T05:36:33;11.13;;;8.00;;
46551;SDS011;32278;51.810;4.712;2024-02-26T05:39:00;11.57;;;7.82;;
46551;SDS011;32278;51.810;4.712;2024-02-26T05:41:26;10.38;;;7.95;;
46551;SDS011;32278;51.810;4.712;2024-02-26T05:43:52;9.48;;;7.80;;
46551;SDS011;32278;51.810;4.712;2024-02-26T05:46:19;11.68;;;8.27;;
46551;SDS011;32278;51.810;4.712;2024-02-26T05:48:49;11.48;;;7.53;;
46551;SDS011;32278;51.810;4.712;2024-02-26T05:51:15;11.70;;;9.27;;
46551;SDS011;32278;51.810;4.712;2024-02-26T05:53:41;14.98;;;8.00;;
46551;SDS011;32278;51.810;4.712;2024-02-26T05:56:07;10.73;;;8.35;;
46551;SDS011;32278;51.810;4.712;2024-02-26T05:58:33;8.77;;;7.88;;
46551;SDS011;32278;51.810;4.712;2024-02-26T06:00:59;9.48;;;7.82;;
46551;SDS011;32278;51.810;4.712;2024-02-26T06:03:26;9.20;;;7.60;;
46551;SDS011;32278;51.810;4.712;2024-02-26T06:05:52;11.32;;;7.97;;
46551;SDS011;32278;51.810;4.712;2024-02-26T06:08:18;11.40;;;8.23;;
46551;SDS011;32278;51.810;4.712;2024-02-26T06:10:44;10.50;;;7.72;;
46551;SDS011;32278;51.810;4.712;2024-02-26T06:13:10;9.82;;;7.90;;
46551;SDS011;32278;51.810;4.712;2024-02-26T06:15:36;10.57;;;7.85;;
46551;SDS011;32278;51.810;4.712;2024-02-26T06:18:02;9.50;;;8.45;;
46551;SDS011;32278;51.810;4.712;2024-02-26T06:20:28;10.80;;;8.77;;
46551;SDS011;32278;51.810;4.712;2024-02-26T06:22:54;9.68;;;8.10;;
46551;SDS011;32278;51.810;4.712;2024-02-26T06:25:20;9.35;;;7.80;;
46551;SDS011;32278;51.810;4.712;2024-02-26T06:27:46;10.80;;;8.75;;
46551;SDS011;32278;51.810;4.712;2024-02-26T06:30:12;12.48;;;8.90;;
46551;SDS011;32278;51.810;4.712;2024-02-26T06:32:38;11.82;;;9.13;;
46551;SDS011;32278;51.810;4.712;2024-02-26T06:35:04;9.75;;;8.48;;
46551;SDS011;32278;51.810;4.712;2024-02-26T06:37:33;11.85;;;9.43;;
46551;SDS011;32278;51.810;4.712;2024-02-26T06:39:59;11.35;;;9.55;;
46551;SDS011;32278;51.810;4.712;2024-02-26T06:42:25;14.15;;;8.27;;
46551;SDS011;32278;51.810;4.712;2024-02-26T06:44:51;12.68;;;8.98;;
46551;SDS011;32278;51.810;4.712;2024-02-26T06:47:17;11.95;;;8.55;;
46551;SDS011;32278;51.810;4.712;2024-02-26T06:49:44;11.38;;;8.90;;
46551;SDS011;32278;51.810;4.712;2024-02-26T06:52:10;11.75;;;8.55;;
46551;SDS011;32278;51.810;4.712;2024-02-26T06:54:36;8.98;;;8.02;;
46551;SDS011;32278;51.810;4.712;2024-02-26T06:57:02;12.55;;;9.57;;
46551;SDS011;32278;51.810;4.712;2024-02-26T06:59:28;11.75;;;9.40;;
46551;SDS011;32278;51.810;4.712;2024-02-26T07:01:54;10.57;;;8.32;;
46551;SDS011;32278;51.810;4.712;2024-02-26T07:04:20;14.35;;;9.70;;
46551;SDS011;32278;51.810;4.712;2024-02-26T07:06:46;14.07;;;8.35;;
46551;SDS011;32278;51.810;4.712;2024-02-26T07:09:13;11.55;;;9.82;;
46551;SDS011;32278;51.810;4.712;2024-02-26T07:11:39;12.73;;;10.35;;
46551;SDS011;32278;51.810;4.712;2024-02-26T07:14:08;15.10;;;10.27;;
46551;SDS011;32278;51.810;4.712;2024-02-26T07:16:35;14.55;;;11.10;;
46551;SDS011;32278;51.810;4.712;2024-02-26T07:19:01;16.80;;;12.38;;
46551;SDS011;32278;51.810;4.712;2024-02-26T07:21:27;15.55;;;12.13;;
46551;SDS011;32278;51.810;4.712;2024-02-26T07:23:53;20.85;;;15.25;;
46551;SDS011;32278;51.810;4.712;2024-02-26T07:26:19;22.27;;;14.52;;
46551;SDS011;32278;51.810;4.712;2024-02-26T07:28:45;22.17;;;15.25;;
46551;SDS011;32278;51.810;4.712;2024-02-26T07:31:12;21.40;;;15.13;;
46551;SDS011;32278;51.810;4.712;2024-02-26T07:33:38;20.60;;;14.27;;
46551;SDS011;32278;51.810;4.712;2024-02-26T07:36:04;23.80;;;14.52;;
46551;SDS011;32278;51.810;4.712;2024-02-26T07:38:30;24.25;;;16.38;;
46551;SDS011;32278;51.810;4.712;2024-02-26T07:40:56;22.30;;;16.10;;
46551;SDS011;32278;51.810;4.712;2024-02-26T07:43:22;22.10;;;15.25;;
46551;SDS011;32278;51.810;4.712;2024-02-26T07:45:48;27.85;;;17.70;;
46551;SDS011;32278;51.810;4.712;2024-02-26T07:48:14;29.58;;;17.95;;
46551;SDS011;32278;51.810;4.712;2024-02-26T07:50:40;25.42;;;17.63;;
46551;SDS011;32278;51.810;4.712;2024-02-26T07:53:06;28.52;;;18.13;;
46551;SDS011;32278;51.810;4.712;2024-02-26T07:55:32;27.25;;;17.63;;
46551;SDS011;32278;51.810;4.712;2024-02-26T07:57:58;28.60;;;17.90;;
46551;SDS011;32278;51.810;4.712;2024-02-26T08:00:25;30.42;;;19.13;;
46551;SDS011;32278;51.810;4.712;2024-02-26T08:02:51;31.42;;;19.20;;
46551;SDS011;32278;51.810;4.712;2024-02-26T08:05:17;31.50;;;19.58;;
46551;SDS011;32278;51.810;4.712;2024-02-26T08:07:43;37.13;;;20.67;;
46551;SDS011;32278;51.810;4.712;2024-02-26T08:10:09;34.05;;;21.23;;
46551;SDS011;32278;51.810;4.712;2024-02-26T08:12:36;34.28;;;21.35;;
46551;SDS011;32278;51.810;4.712;2024-02-26T08:15:02;37.97;;;22.90;;
46551;SDS011;32278;51.810;4.712;2024-02-26T08:17:28;35.78;;;22.92;;
46551;SDS011;32278;51.810;4.712;2024-02-26T08:19:54;41.00;;;25.05;;
46551;SDS011;32278;51.810;4.712;2024-02-26T08:22:21;44.92;;;25.83;;
46551;SDS011;32278;51.810;4.712;2024-02-26T08:24:47;39.05;;;24.55;;
46551;SDS011;32278;51.810;4.712;2024-02-26T08:27:13;39.95;;;26.10;;
46551;SDS011;32278;51.810;4.712;2024-02-26T08:29:39;45.08;;;26.08;;
46551;SDS011;32278;51.810;4.712;2024-02-26T08:32:05;41.47;;;28.08;;
46551;SDS011;32278;51.810;4.712;2024-02-26T08:34:32;45.65;;;29.38;;
46551;SDS011;32278;51.810;4.712;2024-02-26T08:36:58;50.28;;;34.67;;
46551;SDS011;32278;51.810;4.712;2024-02-26T08:39:24;46.60;;;29.10;;
46551;SDS011;32278;51.810;4.712;2024-02-26T08:41:51;47.38;;;28.40;;
46551;SDS011;32278;51.810;4.712;2024-02-26T08:44:17;49.10;;;31.52;;
46551;SDS011;32278;51.810;4.712;2024-02-26T08:46:43;48.40;;;33.47;;
46551;SDS011;32278;51.810;4.712;2024-02-26T08:49:10;46.53;;;32.85;;
46551;SDS011;32278;51.810;4.712;2024-02-26T08:51:41;49.65;;;33.70;;
46551;SDS011;32278;51.810;4.712;2024-02-26T08:54:07;45.88;;;28.77;;
46551;SDS011;32278;51.810;4.712;2024-02-26T08:56:33;45.45;;;28.80;;
46551;SDS011;32278;51.810;4.712;2024-02-26T08:58:59;50.00;;;34.40;;
46551;SDS011;32278;51.810;4.712;2024-02-26T09:01:28;45.13;;;31.13;;
46551;SDS011;32278;51.810;4.712;2024-02-26T09:03:55;53.35;;;30.83;;
46551;SDS011;32278;51.810;4.712;2024-02-26T09:06:21;48.25;;;28.38;;
46551;SDS011;32278;51.810;4.712;2024-02-26T09:08:47;46.15;;;32.72;;
46551;SDS011;32278;51.810;4.712;2024-02-26T09:11:13;43.55;;;32.67;;
46551;SDS011;32278;51.810;4.712;2024-02-26T09:13:39;38.22;;;27.23;;
46551;SDS011;32278;51.810;4.712;2024-02-26T09:16:05;43.72;;;29.55;;
46551;SDS011;32278;51.810;4.712;2024-02-26T09:18:31;39.42;;;26.33;;
46551;SDS011;32278;51.810;4.712;2024-02-26T09:20:57;37.53;;;28.15;;
46551;SDS011;32278;51.810;4.712;2024-02-26T09:23:23;31.38;;;23.88;;
46551;SDS011;32278;51.810;4.712;2024-02-26T09:25:49;30.95;;;23.42;;
46551;SDS011;32278;51.810;4.712;2024-02-26T09:28:15;32.28;;;23.15;;
46551;SDS011;32278;51.810;4.712;2024-02-26T09:30:43;33.33;;;24.27;;
46551;SDS011;32278;51.810;4.712;2024-02-26T09:33:09;29.30;;;22.30;;
46551;SDS011;32278;51.810;4.712;2024-02-26T09:35:35;32.53;;;22.60;;
46551;SDS011;32278;51.810;4.712;2024-02-26T09:38:01;27.20;;;20.58;;
46551;SDS011;32278;51.810;4.712;2024-02-26T09:40:27;25.70;;;19.25;;
46551;SDS011;32278;51.810;4.712;2024-02-26T09:42:55;27.60;;;21.00;;
46551;SDS011;32278;51.810;4.712;2024-02-26T09:45:25;26.17;;;18.65;;
46551;SDS011;32278;51.810;4.712;2024-02-26T09:47:52;22.90;;;16.70;;
46551;SDS011;32278;51.810;4.712;2024-02-26T09:50:21;23.45;;;17.90;;
46551;SDS011;32278;51.810;4.712;2024-02-26T09:52:50;24.95;;;16.95;;
46551;SDS011;32278;51.810;4.712;2024-02-26T09:55:18;21.90;;;16.73;;
46551;SDS011;32278;51.810;4.712;2024-02-26T09:57:45;26.02;;;18.83;;
46551;SDS011;32278;51.810;4.712;2024-02-26T10:00:17;23.38;;;18.60;;
46551;SDS011;32278;51.810;4.712;2024-02-26T10:02:45;21.63;;;15.23;;
46551;SDS011;32278;51.810;4.712;2024-02-26T10:05:12;20.83;;;16.40;;
46551;SDS011;32278;51.810;4.712;2024-02-26T10:07:40;23.48;;;16.75;;
46551;SDS011;32278;51.810;4.712;2024-02-26T10:10:08;24.73;;;15.05;;
46551;SDS011;32278;51.810;4.712;2024-02-26T10:12:34;23.13;;;16.10;;
46551;SDS011;32278;51.810;4.712;2024-02-26T10:15:00;20.73;;;13.98;;
46551;SDS011;32278;51.810;4.712;2024-02-26T10:17:26;20.55;;;13.98;;
46551;SDS011;32278;51.810;4.712;2024-02-26T10:19:53;20.73;;;13.75;;
46551;SDS011;32278;51.810;4.712;2024-02-26T10:22:21;18.20;;;13.52;;
46551;SDS011;32278;51.810;4.712;2024-02-26T10:24:47;22.77;;;17.17;;
46551;SDS011;32278;51.810;4.712;2024-02-26T10:27:13;18.23;;;15.00;;
46551;SDS011;32278;51.810;4.712;2024-02-26T10:29:40;16.80;;;12.63;;
46551;SDS011;32278;51.810;4.712;2024-02-26T10:32:08;16.60;;;12.65;;
46551;SDS011;32278;51.810;4.712;2024-02-26T10:34:34;16.30;;;12.10;;
46551;SDS011;32278;51.810;4.712;2024-02-26T10:37:03;15.98;;;12.00;;
46551;SDS011;32278;51.810;4.712;2024-02-26T10:39:29;20.58;;;12.90;;
46551;SDS011;32278;51.810;4.712;2024-02-26T10:41:55;16.77;;;12.23;;
46551;SDS011;32278;51.810;4.712;2024-02-26T10:44:21;16.10;;;12.38;;
46551;SDS011;32278;51.810;4.712;2024-02-26T10:46:47;18.88;;;13.25;;
46551;SDS011;32278;51.810;4.712;2024-02-26T10:49:17;19.55;;;13.23;;
46551;SDS011;32278;51.810;4.712;2024-02-26T10:51:45;17.88;;;12.45;;
46551;SDS011;32278;51.810;4.712;2024-02-26T10:54:12;18.10;;;12.85;;
46551;SDS011;32278;51.810;4.712;2024-02-26T10:56:41;16.35;;;11.98;;
46551;SDS011;32278;51.810;4.712;2024-02-26T10:59:11;15.48;;;12.30;;
46551;SDS011;32278;51.810;4.712;2024-02-26T11:01:37;15.77;;;11.88;;
46551;SDS011;32278;51.810;4.712;2024-02-26T11:04:06;18.35;;;13.85;;
46551;SDS011;32278;51.810;4.712;2024-02-26T11:06:32;16.77;;;12.07;;
46551;SDS011;32278;51.810;4.712;2024-02-26T11:08:59;15.88;;;12.65;;
46551;SDS011;32278;51.810;4.712;2024-02-26T11:11:27;21.10;;;13.32;;
46551;SDS011;32278;51.810;4.712;2024-02-26T11:13:53;18.15;;;11.82;;
46551;SDS011;32278;51.810;4.712;2024-02-26T11:16:22;19.67;;;12.57;;
46551;SDS011;32278;51.810;4.712;2024-02-26T11:18:49;16.67;;;12.43;;
46551;SDS011;32278;51.810;4.712;2024-02-26T11:21:15;18.00;;;12.45;;
46551;SDS011;32278;51.810;4.712;2024-02-26T11:23:43;16.30;;;11.98;;
46551;SDS011;32278;51.810;4.712;2024-02-26T11:26:09;21.27;;;12.60;;
46551;SDS011;32278;51.810;4.712;2024-02-26T11:28:36;18.30;;;14.93;;
46551;SDS011;32278;51.810;4.712;2024-02-26T11:31:02;18.63;;;12.98;;
46551;SDS011;32278;51.810;4.712;2024-02-26T11:33:29;20.40;;;13.32;;
46551;SDS011;32278;51.810;4.712;2024-02-26T11:35:55;18.45;;;12.93;;
46551;SDS011;32278;51.810;4.712;2024-02-26T11:38:24;19.23;;;13.40;;
46551;SDS011;32278;51.810;4.712;2024-02-26T11:40:51;17.05;;;13.77;;
46551;SDS011;32278;51.810;4.712;2024-02-26T11:43:22;20.08;;;12.82;;
46551;SDS011;32278;51.810;4.712;2024-02-26T11:45:49;18.95;;;14.98;;
46551;SDS011;32278;51.810;4.712;2024-02-26T11:48:19;19.48;;;13.57;;
46551;SDS011;32278;51.810;4.712;2024-02-26T11:50:46;18.75;;;13.02;;
46551;SDS011;32278;51.810;4.712;2024-02-26T11:53:22;19.77;;;13.13;;
46551;SDS011;32278;51.810;4.712;2024-02-26T11:58:57;15.45;;;11.57;;
46551;SDS011;32278;51.810;4.712;2024-02-26T12:01:57;17.67;;;13.45;;
46551;SDS011;32278;51.810;4.712;2024-02-26T12:04:24;18.05;;;13.13;;
46551;SDS011;32278;51.810;4.712;2024-02-26T12:06:52;16.92;;;13.45;;
46551;SDS011;32278;51.810;4.712;2024-02-26T12:09:38;18.27;;;12.45;;
46551;SDS011;32278;51.810;4.712;2024-02-26T12:12:07;17.00;;;12.48;;
46551;SDS011;32278;51.810;4.712;2024-02-26T12:14:37;14.75;;;12.07;;
46551;SDS011;32278;51.810;4.712;2024-02-26T12:17:04;19.83;;;12.05;;
46551;SDS011;32278;51.810;4.712;2024-02-26T12:19:34;19.15;;;12.90;;
46551;SDS011;32278;51.810;4.712;2024-02-26T12:22:01;16.17;;;12.20;;
46551;SDS011;32278;51.810;4.712;2024-02-26T12:24:27;18.88;;;12.73;;
46551;SDS011;32278;51.810;4.712;2024-02-26T12:26:53;17.08;;;12.35;;
46551;SDS011;32278;51.810;4.712;2024-02-26T12:29:19;20.20;;;14.07;;
46551;SDS011;32278;51.810;4.712;2024-02-26T12:31:46;23.33;;;14.52;;
46551;SDS011;32278;51.810;4.712;2024-02-26T12:34:13;15.80;;;11.85;;
46551;SDS011;32278;51.810;4.712;2024-02-26T12:36:40;20.15;;;13.13;;
46551;SDS011;32278;51.810;4.712;2024-02-26T12:39:07;19.95;;;13.50;;
46551;SDS011;32278;51.810;4.712;2024-02-26T12:41:34;18.20;;;13.13;;
46551;SDS011;32278;51.810;4.712;2024-02-26T12:44:00;18.60;;;14.27;;
46551;SDS011;32278;51.810;4.712;2024-02-26T12:46:26;18.30;;;12.25;;
46551;SDS011;32278;51.810;4.712;2024-02-26T12:48:54;24.30;;;13.95;;
46551;SDS011;32278;51.810;4.712;2024-02-26T12:51:22;19.75;;;13.23;;
46551;SDS011;32278;51.810;4.712;2024-02-26T12:53:49;16.98;;;12.75;;
46551;SDS011;32278;51.810;4.712;2024-02-26T12:56:17;22.30;;;14.77;;
46551;SDS011;32278;51.810;4.712;2024-02-26T12:58:43;14.63;;;11.23;;
46551;SDS011;32278;51.810;4.712;2024-02-26T13:01:13;18.15;;;12.60;;
46551;SDS011;32278;51.810;4.712;2024-02-26T13:03:39;15.35;;;13.43;;
46551;SDS011;32278;51.810;4.712;2024-02-26T13:06:06;18.52;;;13.90;;
46551;SDS011;32278;51.810;4.712;2024-02-26T13:08:32;15.40;;;12.68;;
46551;SDS011;32278;51.810;4.712;2024-02-26T13:11:01;19.73;;;12.65;;
46551;SDS011;32278;51.810;4.712;2024-02-26T13:13:28;15.02;;;11.80;;
46551;SDS011;32278;51.810;4.712;2024-02-26T13:16:01;16.65;;;12.02;;
46551;SDS011;32278;51.810;4.712;2024-02-26T13:18:28;16.10;;;14.35;;
46551;SDS011;32278;51.810;4.712;2024-02-26T13:21:05;14.80;;;12.48;;
46551;SDS011;32278;51.810;4.712;2024-02-26T13:23:31;15.90;;;11.38;;
46551;SDS011;32278;51.810;4.712;2024-02-26T13:25:57;17.13;;;12.25;;
46551;SDS011;32278;51.810;4.712;2024-02-26T13:28:23;20.42;;;13.07;;
46551;SDS011;32278;51.810;4.712;2024-02-26T13:30:53;16.15;;;11.52;;
46551;SDS011;32278;51.810;4.712;2024-02-26T13:33:21;15.98;;;11.35;;
46551;SDS011;32278;51.810;4.712;2024-02-26T13:35:47;15.93;;;10.93;;
46551;SDS011;32278;51.810;4.712;2024-02-26T13:38:13;17.08;;;11.45;;
46551;SDS011;32278;51.810;4.712;2024-02-26T13:40:39;14.82;;;12.07;;
46551;SDS011;32278;51.810;4.712;2024-02-26T13:43:06;15.00;;;10.90;;
46551;SDS011;32278;51.810;4.712;2024-02-26T13:45:35;17.42;;;10.20;;
46551;SDS011;32278;51.810;4.712;2024-02-26T13:48:04;15.77;;;11.90;;
46551;SDS011;32278;51.810;4.712;2024-02-26T13:50:30;15.65;;;11.43;;
46551;SDS011;32278;51.810;4.712;2024-02-26T13:52:56;14.80;;;11.65;;
46551;SDS011;32278;51.810;4.712;2024-02-26T13:55:23;13.65;;;11.50;;
46551;SDS011;32278;51.810;4.712;2024-02-26T13:57:51;14.82;;;11.13;;
46551;SDS011;32278;51.810;4.712;2024-02-26T14:00:19;14.18;;;11.07;;
46551;SDS011;32278;51.810;4.712;2024-02-26T14:02:45;15.27;;;11.30;;
46551;SDS011;32278;51.810;4.712;2024-02-26T14:05:11;14.57;;;9.90;;
46551;SDS011;32278;51.810;4.712;2024-02-26T14:07:37;14.23;;;10.55;;
46551;SDS011;32278;51.810;4.712;2024-02-26T14:10:03;12.70;;;10.25;;
46551;SDS011;32278;51.810;4.712;2024-02-26T14:12:30;12.30;;;10.70;;
46551;SDS011;32278;51.810;4.712;2024-02-26T14:14:56;13.13;;;10.13;;
46551;SDS011;32278;51.810;4.712;2024-02-26T14:17:25;13.55;;;11.00;;
46551;SDS011;32278;51.810;4.712;2024-02-26T14:19:51;11.27;;;9.73;;
46551;SDS011;32278;51.810;4.712;2024-02-26T14:22:17;12.85;;;9.82;;
46551;SDS011;32278;51.810;4.712;2024-02-26T14:24:43;14.35;;;10.98;;
46551;SDS011;32278;51.810;4.712;2024-02-26T14:27:09;12.82;;;9.57;;
46551;SDS011;32278;51.810;4.712;2024-02-26T14:29:37;13.98;;;10.02;;
46551;SDS011;32278;51.810;4.712;2024-02-26T14:32:05;16.33;;;9.85;;